Time;durP1;ratioP1;P1;durP2;ratioP2;P2;SDS_P1;SDS_P2;PMS_P1;PMS_P2;Temp;Humidity;BMP_temperature;BMP_pressure;BME280_temperature;BME280_humidity;BME280_pressure;Samples;Min_cycle;Max_cycle;Signal;HPM_P1;HPM_P2
2021/09/02 00:00:03;;;;;;;13.50;7.07;;;15.40;77.50;;;;;;5028187;28;20451;-44
2021/09/02 00:02:30;;;;;;;8.83;6.53;;;15.40;77.40;;;;;;5025220;28;20466;-44
2021/09/02 00:04:57;;;;;;;9.43;6.40;;;15.30;77.40;;;;;;5027060;28;20451;-44
2021/09/02 00:07:23;;;;;;;8.30;6.67;;;15.30;77.60;;;;;;5005437;28;20462;-44
2021/09/02 00:09:50;;;;;;;7.93;5.60;;;15.20;77.60;;;;;;5023815;28;20466;-44
2021/09/02 00:12:17;;;;;;;8.87;6.07;;;15.20;77.80;;;;;;5024025;28;20451;-44
2021/09/02 00:14:44;;;;;;;10.23;7.43;;;15.20;77.80;;;;;;5020903;28;20465;-44
2021/09/02 00:17:11;;;;;;;11.70;6.83;;;15.20;77.90;;;;;;5017941;28;20456;-44
2021/09/02 00:19:38;;;;;;;9.80;5.97;;;15.10;77.80;;;;;;5008655;28;20459;-44
2021/09/02 00:22:05;;;;;;;11.20;8.23;;;15.10;77.70;;;;;;5022631;28;20471;-44
2021/09/02 00:24:32;;;;;;;8.10;6.07;;;15.10;77.70;;;;;;5021290;28;20470;-44
2021/09/02 00:26:59;;;;;;;12.37;8.17;;;15.00;77.60;;;;;;5015696;28;20460;-44
2021/09/02 00:29:26;;;;;;;8.57;6.80;;;15.00;77.60;;;;;;5007315;28;20533;-44
2021/09/02 00:31:53;;;;;;;9.07;7.20;;;15.00;77.40;;;;;;5003666;28;20471;-44
2021/09/02 00:34:20;;;;;;;7.77;6.10;;;15.00;77.20;;;;;;5024841;28;20500;-44
2021/09/02 00:36:47;;;;;;;8.47;6.87;;;14.90;77.20;;;;;;5020116;28;20474;-44
2021/09/02 00:39:14;;;;;;;9.23;7.10;;;14.90;77.10;;;;;;5009847;28;20457;-44
2021/09/02 00:41:40;;;;;;;10.30;7.00;;;14.90;77.00;;;;;;5022796;28;20470;-44
2021/09/02 00:44:07;;;;;;;12.27;6.50;;;14.80;77.00;;;;;;5024119;28;20542;-44
2021/09/02 00:46:34;;;;;;;10.87;7.60;;;14.80;77.30;;;;;;5028853;28;20956;-44
2021/09/02 00:49:00;;;;;;;9.13;7.03;;;14.70;77.60;;;;;;5026783;28;20727;-44
2021/09/02 00:51:27;;;;;;;9.00;7.00;;;14.70;77.90;;;;;;5025842;28;20455;-44
2021/09/02 00:53:56;;;;;;;9.10;6.03;;;14.70;78.00;;;;;;5027401;28;20641;-44
2021/09/02 00:56:27;;;;;;;13.93;7.57;;;14.70;78.20;;;;;;5028900;28;20570;-44
2021/09/02 00:58:53;;;;;;;10.43;7.13;;;14.70;78.20;;;;;;5028442;28;20451;-44
2021/09/02 01:01:21;;;;;;;10.27;6.47;;;14.70;78.40;;;;;;5023843;28;20608;-44
2021/09/02 01:03:49;;;;;;;11.30;7.20;;;14.70;78.40;;;;;;5023832;28;20532;-44
2021/09/02 01:06:16;;;;;;;11.00;7.23;;;14.70;78.60;;;;;;5027650;28;22126;-44
2021/09/02 01:08:44;;;;;;;13.63;6.30;;;14.60;78.70;;;;;;5023676;28;20495;-44
2021/09/02 01:11:11;;;;;;;8.40;6.30;;;14.60;78.90;;;;;;5010383;28;20459;-44
2021/09/02 01:13:38;;;;;;;9.50;7.33;;;14.60;79.00;;;;;;5027915;28;20483;-44
2021/09/02 01:16:05;;;;;;;8.47;6.27;;;14.60;79.00;;;;;;5021211;28;20881;-44
2021/09/02 01:18:32;;;;;;;10.30;7.00;;;14.60;79.10;;;;;;5028161;28;20455;-44
2021/09/02 01:20:59;;;;;;;12.07;7.07;;;14.60;79.20;;;;;;5008625;28;20483;-44
2021/09/02 01:23:25;;;;;;;11.00;8.23;;;14.60;79.20;;;;;;5010331;28;20828;-44
2021/09/02 01:25:52;;;;;;;8.80;6.33;;;14.60;79.30;;;;;;5023869;28;20945;-44
2021/09/02 01:28:19;;;;;;;10.93;6.97;;;14.50;79.40;;;;;;5028236;28;20961;-44
2021/09/02 01:30:46;;;;;;;8.00;6.50;;;14.50;79.50;;;;;;5025991;28;20521;-44
2021/09/02 01:33:14;;;;;;;11.03;6.53;;;14.50;79.50;;;;;;5025137;28;20996;-44
2021/09/02 01:35:42;;;;;;;9.23;7.10;;;14.50;79.70;;;;;;5026325;28;20461;-44
2021/09/02 01:38:09;;;;;;;9.10;6.43;;;14.50;79.70;;;;;;5007245;28;20457;-44
2021/09/02 01:40:39;;;;;;;8.80;6.40;;;14.50;79.70;;;;;;5025632;28;20942;-44
2021/09/02 01:43:08;;;;;;;8.40;6.90;;;14.50;79.70;;;;;;5024298;28;20559;-44
2021/09/02 01:45:36;;;;;;;8.70;6.60;;;14.50;79.70;;;;;;5026031;28;20728;-44
2021/09/02 01:48:04;;;;;;;11.10;7.57;;;14.50;79.70;;;;;;5006764;28;21266;-44
2021/09/02 01:50:33;;;;;;;9.60;7.30;;;14.50;79.70;;;;;;5024538;28;20471;-44
2021/09/02 01:53:02;;;;;;;9.07;7.27;;;14.40;79.50;;;;;;5026942;28;20465;-44
2021/09/02 01:55:29;;;;;;;11.50;7.53;;;14.40;79.50;;;;;;5022128;28;20464;-44
2021/09/02 01:57:56;;;;;;;8.20;7.00;;;14.40;79.50;;;;;;5026991;28;20455;-44
2021/09/02 02:00:23;;;;;;;9.93;7.13;;;14.30;79.50;;;;;;5022283;28;20463;-44
2021/09/02 02:02:51;;;;;;;9.80;6.90;;;14.30;79.40;;;;;;5010806;28;20953;-44
2021/09/02 02:05:19;;;;;;;10.00;7.73;;;14.30;79.40;;;;;;5009452;28;20505;-44
2021/09/02 02:07:46;;;;;;;9.47;7.53;;;14.30;79.30;;;;;;5017951;28;20464;-44
2021/09/02 02:10:16;;;;;;;11.40;7.27;;;14.30;79.20;;;;;;5009642;28;20455;-44
2021/09/02 02:12:44;;;;;;;9.73;7.60;;;14.20;79.10;;;;;;5028146;28;20463;-44
2021/09/02 02:15:11;;;;;;;8.30;6.90;;;14.20;78.80;;;;;;5025874;28;20501;-44
2021/09/02 02:17:39;;;;;;;8.90;6.77;;;14.20;78.80;;;;;;5026513;28;20464;-44
2021/09/02 02:20:07;;;;;;;10.37;6.90;;;14.10;78.90;;;;;;5020924;28;21015;-44
2021/09/02 02:22:34;;;;;;;11.37;6.97;;;14.10;78.90;;;;;;5009106;28;20470;-44
2021/09/02 02:25:01;;;;;;;8.63;7.13;;;14.10;78.90;;;;;;5006588;28;21078;-47
2021/09/02 02:27:28;;;;;;;8.70;7.13;;;14.00;78.90;;;;;;5023567;28;20462;-48
2021/09/02 02:29:56;;;;;;;10.20;6.57;;;14.00;78.90;;;;;;5008396;28;20834;-48
2021/09/02 02:32:23;;;;;;;8.33;6.73;;;14.00;78.90;;;;;;5008407;28;20455;-48
2021/09/02 02:34:50;;;;;;;8.10;7.00;;;13.90;79.00;;;;;;5026042;28;20491;-47
2021/09/02 02:37:17;;;;;;;10.80;7.80;;;13.90;79.10;;;;;;5028645;28;20464;-44
2021/09/02 02:39:43;;;;;;;9.73;7.13;;;13.90;79.10;;;;;;5025145;28;20467;-44
2021/09/02 02:42:10;;;;;;;8.90;7.10;;;13.90;79.20;;;;;;5024093;28;20451;-44
2021/09/02 02:44:38;;;;;;;9.73;7.13;;;13.90;79.30;;;;;;5024024;28;21231;-44
2021/09/02 02:47:06;;;;;;;8.40;7.10;;;13.80;79.50;;;;;;5022699;28;20439;-44
2021/09/02 02:49:35;;;;;;;8.63;7.53;;;13.80;79.50;;;;;;4995682;28;20470;-44
2021/09/02 02:52:04;;;;;;;9.20;6.87;;;13.80;79.60;;;;;;5024264;28;20455;-44
2021/09/02 02:54:31;;;;;;;7.97;6.90;;;13.80;79.70;;;;;;5022667;28;20491;-44
2021/09/02 02:56:57;;;;;;;9.80;6.70;;;13.80;79.80;;;;;;5025498;28;20463;-44
2021/09/02 02:59:24;;;;;;;12.27;8.27;;;13.80;79.80;;;;;;5011364;28;21051;-44
2021/09/02 03:01:53;;;;;;;9.80;6.90;;;13.80;79.80;;;;;;5009273;28;20455;-44
2021/09/02 03:04:20;;;;;;;9.40;7.33;;;13.80;79.90;;;;;;5023678;28;20499;-44
2021/09/02 03:06:49;;;;;;;9.17;6.73;;;13.80;79.90;;;;;;5011365;28;20471;-44
2021/09/02 03:09:16;;;;;;;8.30;6.30;;;13.70;80.00;;;;;;5023414;28;20462;-44
2021/09/02 03:11:43;;;;;;;10.00;7.50;;;13.80;80.10;;;;;;4995047;28;20465;-44
2021/09/02 03:14:10;;;;;;;11.50;7.67;;;13.80;80.10;;;;;;5027704;28;20797;-44
2021/09/02 03:16:36;;;;;;;10.40;7.30;;;13.70;80.10;;;;;;5023339;28;20819;-44
2021/09/02 03:19:03;;;;;;;8.17;7.37;;;13.70;80.20;;;;;;5022582;28;20456;-44
2021/09/02 03:21:32;;;;;;;12.37;7.90;;;13.70;80.20;;;;;;5025386;28;20494;-44
2021/09/02 03:23:59;;;;;;;11.33;9.10;;;13.70;80.30;;;;;;5010405;28;20560;-44
2021/09/02 03:26:25;;;;;;;10.77;8.83;;;13.70;80.30;;;;;;5007188;28;20467;-44
2021/09/02 03:28:52;;;;;;;12.00;8.37;;;13.70;80.30;;;;;;5025342;28;20475;-44
2021/09/02 03:31:19;;;;;;;10.63;8.73;;;13.60;80.30;;;;;;5021740;28;20471;-44
2021/09/02 03:33:48;;;;;;;10.53;7.50;;;13.60;80.30;;;;;;5024251;28;20575;-44
2021/09/02 03:36:15;;;;;;;9.70;7.20;;;13.60;80.20;;;;;;5019676;28;20451;-44
2021/09/02 03:38:41;;;;;;;11.33;7.80;;;13.60;80.10;;;;;;5022845;28;20970;-44
2021/09/02 03:41:10;;;;;;;9.87;8.60;;;13.60;80.10;;;;;;5024707;28;20464;-44
2021/09/02 03:43:37;;;;;;;11.90;6.97;;;13.60;80.10;;;;;;5024349;28;20455;-43
2021/09/02 03:46:04;;;;;;;15.87;7.60;;;13.50;80.20;;;;;;5023097;28;20464;-44
2021/09/02 03:48:31;;;;;;;10.33;7.87;;;13.50;80.20;;;;;;4993334;28;20451;-44
2021/09/02 03:50:57;;;;;;;8.77;6.60;;;13.50;80.20;;;;;;5023973;28;20459;-44
2021/09/02 03:53:24;;;;;;;9.37;7.20;;;13.50;80.20;;;;;;5020326;28;20470;-44
2021/09/02 03:55:51;;;;;;;13.00;7.50;;;13.50;80.10;;;;;;5022299;28;20548;-44
2021/09/02 03:58:17;;;;;;;8.13;7.33;;;13.40;80.20;;;;;;5024351;28;20455;-44
2021/09/02 04:00:44;;;;;;;9.83;7.40;;;13.40;80.30;;;;;;5004541;28;20556;-44
2021/09/02 04:03:11;;;;;;;11.63;7.53;;;13.40;80.40;;;;;;5022547;28;20490;-44
2021/09/02 04:05:38;;;;;;;10.13;6.53;;;13.40;80.50;;;;;;5023820;28;20956;-44
2021/09/02 04:08:05;;;;;;;9.30;7.20;;;13.30;80.50;;;;;;5019713;28;20466;-44
2021/09/02 04:10:32;;;;;;;11.33;7.67;;;13.30;80.50;;;;;;5009140;28;20455;-44
2021/09/02 04:12:59;;;;;;;9.47;7.40;;;13.30;80.50;;;;;;5022405;28;20459;-43
2021/09/02 04:15:25;;;;;;;9.77;7.60;;;13.30;80.60;;;;;;5037236;28;20494;-44
2021/09/02 04:17:52;;;;;;;10.63;7.67;;;13.30;80.60;;;;;;5006475;28;20824;-44
2021/09/02 04:20:19;;;;;;;12.90;8.60;;;13.20;80.70;;;;;;5006899;28;20539;-44
2021/09/02 04:22:46;;;;;;;11.00;8.03;;;13.20;80.70;;;;;;5009947;28;20450;-44
2021/09/02 04:25:12;;;;;;;8.30;7.07;;;13.20;80.70;;;;;;5022773;28;20486;-44
2021/09/02 04:27:39;;;;;;;11.40;7.87;;;13.20;80.70;;;;;;5017921;28;20478;-44
2021/09/02 04:30:06;;;;;;;11.17;7.80;;;13.20;80.70;;;;;;5022465;28;20463;-44
2021/09/02 04:32:35;;;;;;;12.70;8.17;;;13.20;80.70;;;;;;5009191;28;20463;-44
2021/09/02 04:35:02;;;;;;;10.53;9.17;;;13.20;80.80;;;;;;5021450;28;20492;-44
2021/09/02 04:37:34;;;;;;;13.10;7.93;;;13.10;80.70;;;;;;5018597;28;20456;-44
2021/09/02 04:40:01;;;;;;;11.57;9.00;;;13.10;80.80;;;;;;5024559;28;20456;-44
2021/09/02 04:42:28;;;;;;;9.10;7.27;;;13.10;80.80;;;;;;5022275;28;20485;-44
2021/09/02 04:44:54;;;;;;;10.30;7.27;;;13.10;80.90;;;;;;5004625;28;20555;-44
2021/09/02 04:47:21;;;;;;;11.03;7.53;;;13.10;80.90;;;;;;5004224;28;20464;-44
2021/09/02 04:49:48;;;;;;;9.00;7.30;;;13.00;80.90;;;;;;5020613;28;20463;-44
2021/09/02 04:52:15;;;;;;;11.60;8.43;;;13.00;81.00;;;;;;5007894;28;20869;-44
2021/09/02 04:54:41;;;;;;;11.40;7.80;;;13.00;81.00;;;;;;5021944;28;21022;-44
2021/09/02 04:57:10;;;;;;;12.20;7.70;;;13.00;81.10;;;;;;5020246;28;20462;-44
2021/09/02 04:59:37;;;;;;;13.27;8.17;;;13.00;81.20;;;;;;5023808;28;20466;-44
2021/09/02 05:02:04;;;;;;;12.80;8.27;;;13.00;81.30;;;;;;5022412;28;20751;-44
2021/09/02 05:04:31;;;;;;;12.47;8.10;;;13.00;81.30;;;;;;5019594;28;20468;-44
2021/09/02 05:06:58;;;;;;;12.37;7.73;;;13.00;81.40;;;;;;5021091;28;20463;-44
2021/09/02 05:09:24;;;;;;;11.00;8.27;;;13.00;81.40;;;;;;5004745;28;21024;-44
2021/09/02 05:12:14;;;;;;;12.20;8.27;;;13.00;81.40;;;;;;5021408;28;20451;-44
2021/09/02 05:14:41;;;;;;;9.57;8.00;;;13.10;81.40;;;;;;5020252;28;20491;-44
2021/09/02 05:17:08;;;;;;;11.30;7.53;;;13.10;81.40;;;;;;5018513;28;20464;-44
2021/09/02 05:19:36;;;;;;;11.60;7.90;;;13.10;81.40;;;;;;5022904;28;20460;-44
2021/09/02 05:22:03;;;;;;;10.97;6.90;;;13.10;81.50;;;;;;5024007;28;21015;-44
2021/09/02 05:24:30;;;;;;;10.63;7.40;;;13.10;81.60;;;;;;5009535;28;20547;-44
2021/09/02 05:26:57;;;;;;;12.20;7.50;;;13.20;81.60;;;;;;5024230;28;21031;-44
2021/09/02 05:29:23;;;;;;;9.57;7.60;;;13.20;81.70;;;;;;5023634;28;20970;-44
2021/09/02 05:31:52;;;;;;;12.73;8.20;;;13.20;81.70;;;;;;5020977;28;20469;-44
2021/09/02 05:34:20;;;;;;;11.50;7.77;;;13.20;81.70;;;;;;5009828;28;20479;-44
2021/09/02 05:36:46;;;;;;;9.90;7.77;;;13.30;81.70;;;;;;5026484;28;20469;-44
2021/09/02 05:39:15;;;;;;;10.40;7.67;;;13.30;81.80;;;;;;5023425;28;20469;-44
2021/09/02 05:41:44;;;;;;;10.97;8.17;;;13.30;81.80;;;;;;5009673;28;20471;-44
2021/09/02 05:44:12;;;;;;;11.33;8.20;;;13.30;81.90;;;;;;5015529;28;20474;-44
2021/09/02 05:46:39;;;;;;;10.00;8.80;;;13.30;82.00;;;;;;5008703;28;20499;-44
2021/09/02 05:49:06;;;;;;;14.90;8.67;;;13.40;82.10;;;;;;5023797;28;20559;-44
2021/09/02 05:51:33;;;;;;;9.53;8.20;;;13.40;82.20;;;;;;5009733;28;20451;-44
2021/09/02 05:54:03;;;;;;;15.23;9.67;;;13.50;82.30;;;;;;5023674;28;20498;-44
2021/09/02 05:56:29;;;;;;;11.70;9.40;;;13.50;82.30;;;;;;5005436;28;20451;-44
2021/09/02 05:58:56;;;;;;;12.40;8.47;;;13.50;82.40;;;;;;5011379;28;20459;-43
2021/09/02 06:01:23;;;;;;;12.03;8.20;;;13.60;82.50;;;;;;5026017;28;20541;-44
2021/09/02 06:03:50;;;;;;;11.17;8.10;;;13.60;82.40;;;;;;5026171;28;20460;-44
2021/09/02 06:06:17;;;;;;;10.87;8.40;;;13.70;82.40;;;;;;5023177;28;20460;-44
2021/09/02 06:08:44;;;;;;;12.37;7.93;;;13.80;82.40;;;;;;5008907;28;20479;-44
2021/09/02 06:11:10;;;;;;;13.63;8.47;;;13.80;82.50;;;;;;5022797;28;20514;-44
2021/09/02 06:13:37;;;;;;;12.20;8.97;;;13.90;82.40;;;;;;5026879;28;20448;-44
2021/09/02 06:16:04;;;;;;;13.30;8.83;;;13.90;82.50;;;;;;5023533;28;20491;-44
2021/09/02 06:18:32;;;;;;;9.53;8.23;;;14.00;82.60;;;;;;5022542;28;20942;-44
2021/09/02 06:20:58;;;;;;;11.57;9.10;;;14.00;82.70;;;;;;5007445;28;20476;-44
2021/09/02 06:23:25;;;;;;;12.53;9.30;;;14.10;82.60;;;;;;5023390;28;20456;-44
2021/09/02 06:25:52;;;;;;;15.93;9.27;;;14.10;82.70;;;;;;5025312;28;20510;-44
2021/09/02 06:28:19;;;;;;;14.97;8.80;;;14.20;82.80;;;;;;5022335;28;20462;-44
2021/09/02 06:30:46;;;;;;;14.40;8.97;;;14.30;82.80;;;;;;5021150;28;21004;-44
2021/09/02 06:33:14;;;;;;;13.87;9.07;;;14.30;82.80;;;;;;5023885;28;20478;-44
2021/09/02 06:35:41;;;;;;;11.20;8.10;;;14.40;82.90;;;;;;5013976;28;20494;-44
2021/09/02 06:38:08;;;;;;;12.63;8.33;;;14.50;82.90;;;;;;5006943;28;20475;-44
2021/09/02 06:40:35;;;;;;;15.40;10.87;;;14.50;82.80;;;;;;5022696;28;20448;-44
2021/09/02 06:43:02;;;;;;;11.83;9.67;;;14.60;82.80;;;;;;5024860;28;20475;-44
2021/09/02 06:45:29;;;;;;;15.97;10.10;;;14.70;82.80;;;;;;5025496;28;20467;-44
2021/09/02 06:47:56;;;;;;;13.63;9.30;;;14.80;82.80;;;;;;5020871;28;20542;-44
2021/09/02 06:50:23;;;;;;;15.40;9.97;;;14.90;82.70;;;;;;5011782;28;20550;-44
2021/09/02 06:52:49;;;;;;;13.97;8.93;;;15.00;82.70;;;;;;5026426;28;20835;-44
2021/09/02 06:55:16;;;;;;;13.00;8.87;;;15.10;82.50;;;;;;5022805;28;20511;-44
2021/09/02 06:57:43;;;;;;;12.13;9.10;;;15.30;82.20;;;;;;5025603;28;20527;-44
2021/09/02 07:00:11;;;;;;;13.23;9.33;;;15.30;82.00;;;;;;5023258;28;21024;-44
2021/09/02 07:02:37;;;;;;;11.97;8.37;;;15.40;81.80;;;;;;5024122;28;20551;-44
2021/09/02 07:05:06;;;;;;;16.83;9.17;;;15.50;81.60;;;;;;5022370;28;20490;-44
2021/09/02 07:07:33;;;;;;;12.47;9.60;;;15.60;81.30;;;;;;5012319;28;20502;-44
2021/09/02 07:10:01;;;;;;;13.40;9.00;;;15.70;81.10;;;;;;5027063;28;20460;-44
2021/09/02 07:12:28;;;;;;;10.17;7.90;;;15.90;81.00;;;;;;5024955;28;20466;-44
2021/09/02 07:14:56;;;;;;;11.57;9.27;;;16.00;80.60;;;;;;5011640;28;20527;-44
2021/09/02 07:17:23;;;;;;;15.20;8.00;;;16.10;80.30;;;;;;5009712;28;20461;-44
2021/09/02 07:19:49;;;;;;;12.20;9.53;;;16.20;79.90;;;;;;5012982;28;21014;-44
2021/09/02 07:22:16;;;;;;;14.37;9.97;;;16.30;79.40;;;;;;5027983;28;20486;-44
2021/09/02 07:24:43;;;;;;;12.80;8.87;;;16.50;78.70;;;;;;5024424;28;20467;-44
2021/09/02 07:27:10;;;;;;;11.70;8.27;;;16.60;78.50;;;;;;5023955;28;20469;-43
2021/09/02 07:29:37;;;;;;;9.87;8.10;;;16.70;78.40;;;;;;5020688;28;20478;-44
2021/09/02 07:32:03;;;;;;;11.37;8.30;;;16.90;78.60;;;;;;5009535;28;20456;-44
2021/09/02 07:34:30;;;;;;;11.17;7.87;;;17.10;78.00;;;;;;5022085;28;20808;-44
2021/09/02 07:36:58;;;;;;;13.43;8.70;;;17.30;77.50;;;;;;5005643;28;20443;-44
2021/09/02 07:39:24;;;;;;;14.90;7.67;;;17.50;77.20;;;;;;5027374;28;20459;-44
2021/09/02 07:41:51;;;;;;;9.77;7.00;;;17.70;76.70;;;;;;5007886;28;20527;-44
2021/09/02 07:44:19;;;;;;;8.57;7.67;;;17.90;76.30;;;;;;5008261;28;20455;-44
2021/09/02 07:46:47;;;;;;;12.63;7.60;;;18.20;75.30;;;;;;5008995;28;20953;-44
2021/09/02 07:49:15;;;;;;;8.97;7.10;;;18.40;73.60;;;;;;5023069;28;20539;-44
2021/09/02 07:51:43;;;;;;;10.13;6.60;;;18.60;72.80;;;;;;5009373;28;20462;-44
2021/09/02 07:54:10;;;;;;;12.40;6.87;;;18.80;71.20;;;;;;5010897;28;20450;-44
2021/09/02 07:56:36;;;;;;;7.20;6.20;;;18.90;70.80;;;;;;5008383;28;20487;-44
2021/09/02 07:59:06;;;;;;;9.77;7.30;;;19.10;70.80;;;;;;5020344;28;20491;-44
2021/09/02 08:01:33;;;;;;;9.50;5.93;;;19.30;69.80;;;;;;5020688;28;20548;-44
2021/09/02 08:04:00;;;;;;;8.20;6.80;;;19.50;69.50;;;;;;5024769;28;20494;-44
2021/09/02 08:06:27;;;;;;;8.30;6.87;;;19.70;68.60;;;;;;5025283;28;20464;-44
2021/09/02 08:08:54;;;;;;;11.37;7.90;;;19.90;68.20;;;;;;5022442;28;20981;-44
2021/09/02 08:11:21;;;;;;;11.30;7.20;;;20.00;67.30;;;;;;5022584;28;20482;-44
2021/09/02 08:13:47;;;;;;;11.40;7.10;;;20.20;66.90;;;;;;5022467;28;20464;-44
2021/09/02 08:16:14;;;;;;;8.90;6.60;;;20.40;66.70;;;;;;5008918;28;20489;-44
2021/09/02 08:18:41;;;;;;;7.93;6.50;;;20.50;66.30;;;;;;5023374;28;20510;-44
2021/09/02 08:21:08;;;;;;;7.50;6.63;;;20.70;66.30;;;;;;5004296;28;20836;-45
2021/09/02 08:23:35;;;;;;;9.40;7.03;;;20.90;66.10;;;;;;5007968;28;20455;-44
2021/09/02 08:26:02;;;;;;;10.63;7.23;;;21.10;64.70;;;;;;5002891;28;20485;-44
2021/09/02 08:28:29;;;;;;;7.73;6.93;;;21.30;64.20;;;;;;5024472;28;20459;-44
2021/09/02 08:30:57;;;;;;;9.43;6.70;;;21.50;63.80;;;;;;5023823;28;20463;-44
2021/09/02 08:33:23;;;;;;;6.60;5.97;;;21.60;62.80;;;;;;5008547;28;20456;-44
2021/09/02 08:35:51;;;;;;;11.43;6.83;;;21.80;62.80;;;;;;5020208;28;20492;-44
2021/09/02 08:38:18;;;;;;;14.20;6.90;;;22.00;62.30;;;;;;5026593;28;20562;-44
2021/09/02 08:40:48;;;;;;;9.27;6.60;;;22.20;61.40;;;;;;5021608;28;20443;-44
2021/09/02 08:43:16;;;;;;;12.63;7.60;;;22.40;60.70;;;;;;5020921;28;20463;-44
2021/09/02 08:46:05;;;;;;;8.60;7.27;;;22.60;60.70;;;;;;5026225;28;20451;-44
2021/09/02 08:48:33;;;;;;;8.63;6.57;;;22.80;60.50;;;;;;5011085;28;20451;-44
2021/09/02 08:51:02;;;;;;;8.93;6.40;;;23.00;59.30;;;;;;5026730;28;20502;-44
2021/09/02 08:53:29;;;;;;;8.30;5.77;;;23.10;59.00;;;;;;5007463;28;20545;-44
2021/09/02 08:55:56;;;;;;;10.30;6.47;;;23.30;58.80;;;;;;5026241;28;20570;-44
2021/09/02 08:58:23;;;;;;;7.33;6.50;;;23.50;58.40;;;;;;5024047;28;20451;-45
2021/09/02 09:00:49;;;;;;;9.63;6.50;;;23.80;57.90;;;;;;5021057;28;20455;-45
2021/09/02 09:03:18;;;;;;;6.93;6.00;;;24.00;57.50;;;;;;5007283;28;20743;-45
2021/09/02 09:06:06;;;;;;;12.63;6.03;;;24.30;56.70;;;;;;5009004;28;21298;-45
2021/09/02 09:08:38;;;;;;;9.37;6.67;;;24.60;56.20;;;;;;5026663;28;20478;-44
2021/09/02 09:11:14;;;;;;;10.20;6.00;;;24.80;55.20;;;;;;5026635;28;20459;-45
2021/09/02 09:13:44;;;;;;;8.20;5.80;;;25.00;55.00;;;;;;5025701;28;20502;-45
2021/09/02 09:16:11;;;;;;;10.43;6.60;;;25.20;54.60;;;;;;5022545;28;20557;-45
2021/09/02 09:18:43;;;;;;;8.73;6.40;;;25.50;54.40;;;;;;5010894;28;20488;-45
2021/09/02 09:21:17;;;;;;;9.87;6.23;;;25.80;53.80;;;;;;5028249;28;20487;-45
2021/09/02 09:24:01;;;;;;;9.10;6.30;;;26.00;53.10;;;;;;5023572;28;20463;-45
2021/09/02 09:26:28;;;;;;;9.50;7.37;;;26.40;52.30;;;;;;5010356;28;20477;-45
2021/09/02 09:28:57;;;;;;;7.37;5.50;;;26.60;51.90;;;;;;5022367;28;20462;-45
2021/09/02 09:31:28;;;;;;;9.93;6.30;;;26.80;51.20;;;;;;5023355;28;20973;-45
2021/09/02 09:33:57;;;;;;;13.30;5.83;;;26.90;50.20;;;;;;5025399;28;20463;-45
2021/09/02 09:36:25;;;;;;;8.73;5.90;;;26.90;50.30;;;;;;4994884;28;20491;-45
2021/09/02 09:39:10;;;;;;;7.13;5.70;;;26.90;50.10;;;;;;5010104;28;20460;-45
2021/09/02 09:41:43;;;;;;;8.80;6.07;;;26.80;50.60;;;;;;5023382;28;20967;-45
2021/09/02 09:44:27;;;;;;;9.83;5.80;;;26.80;50.60;;;;;;5010803;28;20208;-45
2021/09/02 09:47:16;;;;;;;7.93;6.70;;;26.60;50.60;;;;;;5026435;28;21054;-44
2021/09/02 09:50:02;;;;;;;9.70;6.00;;;26.20;51.60;;;;;;5010230;28;20462;-44
2021/09/02 09:52:32;;;;;;;9.10;6.50;;;26.00;51.50;;;;;;5024153;28;20466;-44
2021/09/02 09:55:12;;;;;;;6.90;6.20;;;25.80;52.20;;;;;;5024873;28;20486;-44
2021/09/02 09:57:40;;;;;;;7.60;5.70;;;25.60;52.70;;;;;;5024303;28;20447;-44
2021/09/02 10:00:10;;;;;;;7.03;6.20;;;25.50;52.90;;;;;;5022024;28;20456;-44
2021/09/02 10:02:39;;;;;;;8.13;5.70;;;25.60;53.30;;;;;;5007432;28;20444;-44
2021/09/02 10:05:09;;;;;;;8.43;6.00;;;25.60;53.50;;;;;;5025156;28;20445;-45
2021/09/02 10:07:38;;;;;;;7.00;6.10;;;25.90;52.70;;;;;;5009978;28;20469;-45
2021/09/02 10:10:09;;;;;;;9.73;5.93;;;26.10;52.10;;;;;;5023832;28;20811;-45
2021/09/02 10:12:37;;;;;;;9.97;6.20;;;26.40;51.20;;;;;;5024943;28;20447;-45
2021/09/02 10:15:05;;;;;;;7.80;5.37;;;26.70;50.10;;;;;;5008018;28;20466;-46
2021/09/02 10:17:34;;;;;;;5.70;5.10;;;27.00;49.70;;;;;;5024131;28;21027;-46
2021/09/02 10:20:04;;;;;;;6.97;5.97;;;27.40;47.90;;;;;;5021884;28;20201;-46
2021/09/02 10:22:33;;;;;;;6.23;5.60;;;27.80;47.60;;;;;;5024252;28;20541;-44
2021/09/02 10:25:00;;;;;;;10.30;6.50;;;28.20;46.80;;;;;;5008007;28;20200;-44
2021/09/02 10:27:34;;;;;;;7.50;5.83;;;28.40;46.40;;;;;;5024969;28;20243;-44
2021/09/02 10:30:19;;;;;;;7.57;5.43;;;28.50;46.00;;;;;;5022328;28;20239;-44
2021/09/02 10:32:46;;;;;;;10.60;6.67;;;28.60;45.60;;;;;;5026055;28;20224;-44
2021/09/02 10:35:16;;;;;;;6.30;4.80;;;28.70;45.70;;;;;;5022951;28;20208;-44
2021/09/02 10:37:43;;;;;;;7.57;6.03;;;28.90;45.70;;;;;;5009559;28;20205;-44
2021/09/02 10:40:36;;;;;;;5.27;4.73;;;29.20;45.80;;;;;;5023568;28;20212;-44
2021/09/02 10:43:03;;;;;;;6.07;5.47;;;29.40;44.80;;;;;;5014883;28;20208;-44
2021/09/02 10:45:32;;;;;;;5.60;5.07;;;29.60;43.70;;;;;;5019335;28;20208;-44
2021/09/02 10:48:14;;;;;;;6.75;5.00;;;29.60;43.60;;;;;;5024662;28;20217;-44
2021/09/02 10:50:43;;;;;;;5.35;4.30;;;29.70;43.20;;;;;;4989015;28;20564;-44
2021/09/02 10:53:17;;;;;;;7.15;5.30;;;29.70;43.10;;;;;;5008434;28;20685;-44
2021/09/02 10:55:51;;;;;;;6.50;5.47;;;29.70;43.50;;;;;;5004893;28;20226;-44
2021/09/02 10:58:37;;;;;;;5.43;4.93;;;29.40;43.40;;;;;;5027589;28;21057;-44
2021/09/02 11:01:22;;;;;;;10.00;5.60;;;28.90;44.30;;;;;;5011907;28;20546;-44
2021/09/02 11:03:51;;;;;;;5.77;4.90;;;28.40;44.30;;;;;;5012625;28;20204;-46
2021/09/02 11:06:17;;;;;;;5.73;4.57;;;27.90;45.10;;;;;;5023121;28;20581;-45
2021/09/02 11:08:44;;;;;;;5.80;4.70;;;27.60;45.70;;;;;;5009821;28;20208;-45
2021/09/02 11:11:22;;;;;;;7.07;4.83;;;27.30;46.50;;;;;;4991003;28;20208;-46
2021/09/02 11:13:54;;;;;;;7.60;4.80;;;27.00;46.40;;;;;;5026421;28;20211;-44
2021/09/02 11:16:23;;;;;;;6.70;4.87;;;26.70;46.90;;;;;;5018666;28;21003;-44
2021/09/02 11:18:55;;;;;;;7.80;5.30;;;26.40;46.60;;;;;;5023257;28;20451;-44
2021/09/02 11:21:26;;;;;;;5.30;4.53;;;26.10;47.80;;;;;;5011238;28;20562;-44
2021/09/02 11:24:10;;;;;;;7.30;4.20;;;25.90;47.80;;;;;;5025362;28;20985;-44
2021/09/02 11:26:45;;;;;;;4.93;4.53;;;25.60;48.30;;;;;;5026512;28;20451;-44
2021/09/02 11:29:23;;;;;;;6.53;5.13;;;25.40;49.10;;;;;;5026963;28;20481;-44
2021/09/02 11:32:06;;;;;;;5.83;4.50;;;25.20;49.70;;;;;;5024661;28;20460;-44
2021/09/02 11:34:34;;;;;;;6.30;5.00;;;25.10;50.10;;;;;;5020941;28;20461;-44
2021/09/02 11:37:02;;;;;;;6.60;5.73;;;25.00;50.00;;;;;;5023879;28;20927;-44
2021/09/02 11:39:31;;;;;;;6.70;5.20;;;25.00;49.70;;;;;;5023668;28;20927;-43
2021/09/02 11:42:08;;;;;;;5.07;4.17;;;24.90;49.40;;;;;;5023854;28;20473;-43
2021/09/02 11:44:37;;;;;;;6.30;5.23;;;24.80;49.70;;;;;;5023107;28;20469;-43
2021/09/02 11:47:10;;;;;;;6.17;5.10;;;24.80;50.10;;;;;;5019950;28;20440;-43
2021/09/02 11:49:39;;;;;;;6.87;5.47;;;24.70;50.80;;;;;;5024275;28;20542;-44
2021/09/02 11:52:07;;;;;;;7.03;5.50;;;24.60;51.40;;;;;;5008377;28;20521;-44
2021/09/02 11:54:35;;;;;;;7.17;5.60;;;24.40;51.70;;;;;;5024752;28;20547;-43
2021/09/02 11:57:03;;;;;;;6.20;5.60;;;24.40;52.30;;;;;;5024914;28;20581;-43
2021/09/02 11:59:29;;;;;;;6.57;5.87;;;24.40;52.80;;;;;;5006831;28;20482;-43
2021/09/02 12:01:57;;;;;;;7.73;6.90;;;24.40;52.60;;;;;;5007786;28;20814;-46
2021/09/02 12:04:26;;;;;;;6.80;5.90;;;24.40;52.70;;;;;;4991465;28;20466;-45
2021/09/02 12:06:59;;;;;;;6.60;6.00;;;24.30;53.30;;;;;;5020709;28;20458;-46
2021/09/02 12:09:34;;;;;;;6.27;5.67;;;24.20;52.80;;;;;;5025695;28;20469;-45
2021/09/02 12:12:01;;;;;;;6.37;5.53;;;24.20;52.80;;;;;;5025083;28;20533;-45
2021/09/02 12:14:30;;;;;;;8.33;6.53;;;24.10;52.90;;;;;;5023379;28;20469;-46
2021/09/02 12:17:07;;;;;;;6.67;5.97;;;24.10;51.60;;;;;;5024624;28;20525;-45
2021/09/02 12:19:54;;;;;;;11.17;7.23;;;24.10;51.90;;;;;;5023096;28;20454;-45
2021/09/02 12:22:40;;;;;;;8.93;6.00;;;24.00;52.20;;;;;;5009296;28;20915;-45
2021/09/02 12:25:15;;;;;;;7.30;5.83;;;24.00;52.20;;;;;;5026262;28;20447;-45
2021/09/02 12:27:50;;;;;;;6.67;6.00;;;24.00;52.70;;;;;;5021740;28;20454;-45
2021/09/02 12:30:40;;;;;;;8.20;6.70;;;24.00;52.60;;;;;;5021767;28;20446;-45
2021/09/02 12:33:16;;;;;;;7.93;6.67;;;24.00;52.70;;;;;;5005282;28;20462;-45
2021/09/02 12:35:47;;;;;;;8.47;6.70;;;24.00;53.20;;;;;;5023380;28;20865;-45
2021/09/02 12:38:36;;;;;;;5.90;5.30;;;24.00;52.30;;;;;;5002311;28;20457;-45
2021/09/02 12:41:14;;;;;;;9.00;6.50;;;24.00;51.80;;;;;;5022993;28;20530;-45
2021/09/02 12:44:34;;;;;;;8.23;6.27;;;24.00;51.60;;;;;;4997850;28;20469;-45
2021/09/02 12:47:13;;;;;;;7.10;6.40;;;23.90;51.50;;;;;;4986182;28;20612;-45
2021/09/02 12:49:42;;;;;;;6.63;5.83;;;23.90;52.00;;;;;;5022644;28;20986;-45
2021/09/02 12:52:17;;;;;;;7.50;6.17;;;23.80;51.40;;;;;;5025630;28;20463;-45